createdAt,value
2023-03-22T00:01:31.571Z,1.23
2023-03-22T00:04:00.425Z,1.75
2023-03-22T00:06:28.475Z,1.10
2023-03-22T00:08:56.855Z,1.30
2023-03-22T00:11:25.935Z,1.45
2023-03-22T00:13:55.082Z,1.42
2023-03-22T00:16:23.682Z,2.25
2023-03-22T00:18:53.288Z,1.75
2023-03-22T00:21:21.271Z,1.60
2023-03-22T00:23:49.338Z,1.85
2023-03-22T00:26:17.497Z,1.50
2023-03-22T00:28:45.549Z,1.05
2023-03-22T00:31:15.758Z,0.90
2023-03-22T00:33:43.969Z,1.85
2023-03-22T00:36:13.986Z,1.85
2023-03-22T00:38:44.107Z,1.60
2023-03-22T00:41:14.766Z,1.55
2023-03-22T00:43:43.463Z,2.42
2023-03-22T00:46:12.595Z,2.47
2023-03-22T00:48:41.181Z,2.55
2023-03-22T00:51:12.707Z,2.40
2023-03-22T00:53:43.732Z,2.58
2023-03-22T00:56:15.712Z,2.35
2023-03-22T00:58:56.074Z,1.33
2023-03-22T01:01:24.460Z,1.45
2023-03-22T01:06:21.542Z,1.85
2023-03-22T01:08:51.737Z,2.28
2023-03-22T01:11:19.797Z,1.50
2023-03-22T01:13:48.309Z,2.60
2023-03-22T01:16:16.477Z,1.70
2023-03-22T01:18:44.741Z,2.53
2023-03-22T01:21:13.433Z,2.58
2023-03-22T01:23:41.880Z,2.33
2023-03-22T01:26:11.272Z,2.60
2023-03-22T01:28:40.643Z,2.28
2023-03-22T01:31:08.919Z,3.00
2023-03-22T01:33:36.999Z,2.38
2023-03-22T01:36:06.082Z,2.30
2023-03-22T01:38:35.854Z,2.30
2023-03-22T01:41:04.198Z,2.75
2023-03-22T01:43:37.253Z,1.85
2023-03-22T01:46:05.987Z,1.63
2023-03-22T01:48:38.459Z,2.00
2023-03-22T01:51:10.413Z,1.95
2023-03-22T01:54:04.060Z,1.50
2023-03-22T01:56:35.625Z,2.00
2023-03-22T01:59:06.341Z,1.88
2023-03-22T02:01:50.460Z,2.40
2023-03-22T02:04:21.105Z,1.90
2023-03-22T02:06:51.607Z,1.67
2023-03-22T02:09:22.914Z,1.88
2023-03-22T02:11:56.949Z,1.65
2023-03-22T02:14:57.376Z,1.80
2023-03-22T02:18:01.661Z,1.13
2023-03-22T02:21:17.650Z,1.15
2023-03-22T02:24:10.174Z,1.48
2023-03-22T02:27:23.446Z,1.27
2023-03-22T02:30:01.535Z,1.75
2023-03-22T02:33:01.613Z,1.40
2023-03-22T02:35:54.388Z,1.30
2023-03-22T02:38:48.297Z,1.65
2023-03-22T02:41:24.478Z,0.85
2023-03-22T02:44:05.307Z,1.15
2023-03-22T02:46:39.959Z,0.50
2023-03-22T02:49:16.945Z,1.27
2023-03-22T02:51:50.222Z,1.25
2023-03-22T02:54:23.797Z,1.05
2023-03-22T02:56:57.231Z,0.63
2023-03-22T02:59:28.292Z,0.82
2023-03-22T03:02:00.209Z,1.05
2023-03-22T03:04:33.531Z,0.68
2023-03-22T03:07:07.067Z,0.57
2023-03-22T03:09:37.767Z,0.57
2023-03-22T03:12:14.604Z,0.98
2023-03-22T03:14:43.143Z,0.85
2023-03-22T03:17:22.316Z,0.45
2023-03-22T03:20:02.601Z,0.50
2023-03-22T03:22:42.892Z,1.30
2023-03-22T03:25:22.932Z,0.73
2023-03-22T03:27:59.820Z,0.57
2023-03-22T03:30:35.824Z,0.90
2023-03-22T03:33:10.517Z,1.00
2023-03-22T03:35:42.741Z,0.32
2023-03-22T03:38:17.482Z,1.08
2023-03-22T03:40:50.528Z,0.50
2023-03-22T03:43:20.017Z,0.60
2023-03-22T03:45:48.895Z,1.30
2023-03-22T03:48:23.358Z,0.80
2023-03-22T03:50:54.616Z,0.93
2023-03-22T03:53:23.032Z,1.10
2023-03-22T03:58:20.564Z,1.00
2023-03-22T04:00:49.448Z,1.00
2023-03-22T04:03:37.785Z,0.90
2023-03-22T04:06:14.616Z,1.55
2023-03-22T04:08:53.488Z,0.70
2023-03-22T04:11:27.686Z,0.85
2023-03-22T04:14:00.344Z,0.70
2023-03-22T04:16:28.628Z,0.28
2023-03-22T04:18:56.724Z,0.45
2023-03-22T04:21:24.790Z,0.65
2023-03-22T04:24:03.607Z,0.93
2023-03-22T04:26:38.853Z,0.77
2023-03-22T04:29:22.008Z,0.77
2023-03-22T04:34:35.513Z,0.75
2023-03-22T04:37:05.654Z,0.93
2023-03-22T04:39:50.083Z,0.17
2023-03-22T04:42:36.919Z,0.57
2023-03-22T04:45:14.931Z,0.98
2023-03-22T04:47:46.479Z,0.73
2023-03-22T04:52:50.082Z,1.50
2023-03-22T04:55:18.832Z,0.77
2023-03-22T04:57:48.626Z,0.40
2023-03-22T05:00:18.693Z,0.30
2023-03-22T05:02:46.944Z,0.68
2023-03-22T05:05:22.452Z,1.33
2023-03-22T05:07:52.252Z,1.00
2023-03-22T05:10:20.521Z,1.30
2023-03-22T05:12:50.280Z,0.60
2023-03-22T05:15:23.193Z,0.63
2023-03-22T05:17:53.042Z,0.57
2023-03-22T05:20:21.110Z,1.05
2023-03-22T05:23:02.635Z,1.17
2023-03-22T05:25:32.041Z,0.80
2023-03-22T05:30:43.371Z,1.20
2023-03-22T05:33:34.761Z,0.93
2023-03-22T05:36:04.379Z,0.80
2023-03-22T05:38:38.354Z,0.30
2023-03-22T05:41:08.355Z,1.00
2023-03-22T05:43:38.811Z,0.95
2023-03-22T05:46:08.333Z,0.47
2023-03-22T05:48:42.643Z,1.10
2023-03-22T05:51:17.504Z,0.98
2023-03-22T05:53:48.636Z,0.80
2023-03-22T05:56:21.831Z,1.20
2023-03-22T05:58:52.829Z,0.40
2023-03-22T06:01:23.170Z,0.45
2023-03-22T06:04:09.666Z,0.93
2023-03-22T06:06:58.897Z,0.52
2023-03-22T06:09:40.526Z,0.93
2023-03-22T06:12:12.978Z,1.23
2023-03-22T06:14:43.364Z,0.35
2023-03-22T06:17:18.698Z,0.90
2023-03-22T06:19:50.458Z,0.40
2023-03-22T06:22:20.263Z,0.60
2023-03-22T06:24:49.014Z,0.43
2023-03-22T06:27:23.167Z,0.70
2023-03-22T06:29:54.727Z,0.75
2023-03-22T06:32:26.780Z,1.15
2023-03-22T06:34:56.862Z,0.50
2023-03-22T06:37:27.023Z,0.63
2023-03-22T06:39:56.148Z,1.08
2023-03-22T06:42:27.193Z,0.30
2023-03-22T06:45:08.051Z,1.20
2023-03-22T06:47:39.115Z,1.00
2023-03-22T06:52:54.228Z,0.32
2023-03-22T06:55:22.461Z,0.75
2023-03-22T06:57:50.980Z,0.65
2023-03-22T07:00:21.032Z,1.17
2023-03-22T07:02:50.848Z,1.00
2023-03-22T07:05:29.254Z,0.65
2023-03-22T07:07:57.747Z,0.95
2023-03-22T07:10:27.494Z,0.88
2023-03-22T07:12:55.752Z,0.93
2023-03-22T07:15:26.120Z,0.70
2023-03-22T07:18:03.762Z,1.00
2023-03-22T07:20:37.125Z,1.17
2023-03-22T07:23:06.325Z,1.00
2023-03-22T07:25:41.009Z,0.98
2023-03-22T07:28:30.516Z,0.90
2023-03-22T07:31:07.314Z,0.50
2023-03-22T07:34:05.060Z,0.68
2023-03-22T07:36:41.707Z,0.60
2023-03-22T07:39:12.172Z,0.52
2023-03-22T07:41:45.329Z,0.52
2023-03-22T07:44:47.225Z,1.10
2023-03-22T07:47:37.708Z,0.50
2023-03-22T07:50:20.600Z,0.65
2023-03-22T07:52:54.244Z,0.60
2023-03-22T07:55:22.561Z,0.20
2023-03-22T07:57:51.254Z,1.23
2023-03-22T08:00:20.673Z,0.90
2023-03-22T08:03:01.141Z,0.28
2023-03-22T08:05:49.385Z,0.55
2023-03-22T08:10:51.556Z,1.70
2023-03-22T08:13:19.724Z,0.30
2023-03-22T08:15:47.754Z,0.65
2023-03-22T08:18:17.542Z,0.60
2023-03-22T08:20:46.315Z,0.45
2023-03-22T08:23:26.435Z,0.75
2023-03-22T08:26:14.973Z,0.60
2023-03-22T08:28:44.534Z,0.50
2023-03-22T08:31:15.319Z,0.57
2023-03-22T08:33:47.214Z,0.65
2023-03-22T08:36:18.494Z,0.57
2023-03-22T08:38:58.900Z,0.60
2023-03-22T08:41:40.358Z,0.70
2023-03-22T08:44:08.691Z,0.93
2023-03-22T08:46:37.263Z,0.50
2023-03-22T08:49:06.770Z,0.55
2023-03-22T08:51:40.676Z,0.55
2023-03-22T08:54:19.365Z,0.50
2023-03-22T08:56:53.164Z,0.52
2023-03-22T08:59:38.349Z,0.65
2023-03-22T09:02:35.701Z,0.50
2023-03-22T09:05:06.635Z,0.65
2023-03-22T09:07:35.172Z,0.80
2023-03-22T09:10:12.324Z,0.63
2023-03-22T09:12:44.040Z,1.02
2023-03-22T09:15:12.605Z,0.40
2023-03-22T09:17:43.651Z,0.90
2023-03-22T09:20:13.481Z,0.68
2023-03-22T09:22:44.565Z,0.80
2023-03-22T09:25:15.538Z,0.68
2023-03-22T09:27:47.033Z,0.90
2023-03-22T09:30:15.744Z,0.38
2023-03-22T09:32:44.244Z,0.75
2023-03-22T09:35:17.266Z,0.63
2023-03-22T09:38:00.001Z,0.95
2023-03-22T09:40:31.843Z,0.50
2023-03-22T09:43:03.460Z,0.98
2023-03-22T09:45:38.479Z,0.98
2023-03-22T09:48:13.000Z,1.10
2023-03-22T09:50:47.958Z,0.50
2023-03-22T09:53:17.490Z,0.30
2023-03-22T09:55:51.716Z,0.73
2023-03-22T09:58:29.165Z,1.00
2023-03-22T10:00:59.646Z,0.30
2023-03-22T10:03:55.930Z,0.95
2023-03-22T10:06:29.386Z,0.55
2023-03-22T10:09:06.978Z,0.98
2023-03-22T10:11:45.721Z,0.50
2023-03-22T10:14:26.049Z,0.73
2023-03-22T10:16:57.275Z,0.90
2023-03-22T10:19:32.289Z,0.77
2023-03-22T10:22:03.406Z,0.50
2023-03-22T10:24:35.154Z,0.50
2023-03-22T10:27:04.122Z,0.90
2023-03-22T10:29:37.212Z,0.55
2023-03-22T10:32:14.912Z,0.52
2023-03-22T10:34:44.015Z,0.82
2023-03-22T10:37:17.411Z,0.52
2023-03-22T10:39:49.839Z,0.50
2023-03-22T10:42:22.185Z,0.50
2023-03-22T10:44:53.175Z,0.60
2023-03-22T10:47:30.907Z,0.30
2023-03-22T10:50:03.883Z,0.40
2023-03-22T10:52:42.422Z,0.82
2023-03-22T10:55:12.437Z,0.43
2023-03-22T10:57:43.105Z,0.32
2023-03-22T11:00:17.607Z,0.57
2023-03-22T11:02:49.305Z,0.60
2023-03-22T11:05:23.968Z,0.68
2023-03-22T11:07:53.814Z,1.00
2023-03-22T11:10:27.354Z,0.60
2023-03-22T11:12:58.014Z,0.45
2023-03-22T11:15:30.039Z,0.55
2023-03-22T11:18:03.927Z,0.40
2023-03-22T11:20:34.411Z,0.15
2023-03-22T11:23:07.031Z,0.60
2023-03-22T11:25:37.498Z,0.60
2023-03-22T11:28:16.570Z,1.00
2023-03-22T11:31:01.127Z,0.63
2023-03-22T11:33:29.380Z,0.60
2023-03-22T11:35:59.267Z,0.17
2023-03-22T11:38:31.568Z,0.52
2023-03-22T11:41:03.213Z,0.47
2023-03-22T11:43:35.453Z,0.50
2023-03-22T11:46:05.156Z,0.70
2023-03-22T11:48:34.707Z,0.45
2023-03-22T11:51:09.524Z,0.73
2023-03-22T11:56:12.124Z,0.68
2023-03-22T11:58:59.610Z,0.43
2023-03-22T12:01:35.918Z,0.43
2023-03-22T12:04:08.873Z,0.55
2023-03-22T12:06:40.297Z,0.68
2023-03-22T12:09:23.243Z,0.40
2023-03-22T12:11:55.088Z,0.57
2023-03-22T12:14:27.193Z,0.98
2023-03-22T12:16:59.352Z,0.50
2023-03-22T12:19:53.132Z,0.40
2023-03-22T12:22:29.240Z,0.77
2023-03-22T12:24:59.603Z,1.05
2023-03-22T12:27:34.167Z,0.57
2023-03-22T12:30:08.021Z,0.57
2023-03-22T12:32:41.904Z,0.80
2023-03-22T12:35:18.093Z,0.55
2023-03-22T12:37:49.508Z,0.40
2023-03-22T12:40:25.429Z,0.50
2023-03-22T12:43:01.853Z,0.50
2023-03-22T12:45:33.330Z,0.70
2023-03-22T12:48:09.328Z,0.82
2023-03-22T12:50:43.569Z,0.47
2023-03-22T12:53:15.581Z,0.60
2023-03-22T12:55:47.144Z,0.30
2023-03-22T12:58:21.217Z,0.98
2023-03-22T13:00:53.114Z,0.70
2023-03-22T13:03:29.023Z,1.63
2023-03-22T13:06:04.591Z,0.50
2023-03-22T13:09:04.584Z,0.60
2023-03-22T13:11:34.153Z,0.55
2023-03-22T13:14:02.553Z,1.05
2023-03-22T13:19:36.169Z,0.77
2023-03-22T13:22:19.845Z,0.95
2023-03-22T13:25:19.001Z,0.25
2023-03-22T13:27:54.607Z,0.68
2023-03-22T13:30:28.421Z,0.60
2023-03-22T13:33:03.512Z,0.40
2023-03-22T13:35:44.123Z,0.60
2023-03-22T13:38:22.042Z,0.63
2023-03-22T13:40:57.271Z,0.52
2023-03-22T13:43:31.092Z,0.82
2023-03-22T13:46:12.492Z,0.50
2023-03-22T13:49:00.725Z,1.15
2023-03-22T13:51:32.099Z,0.52
2023-03-22T13:54:05.854Z,0.50
2023-03-22T13:56:52.482Z,0.52
2023-03-22T13:59:27.410Z,0.70
2023-03-22T14:01:59.690Z,0.70
2023-03-22T14:04:34.940Z,1.10
2023-03-22T14:07:11.116Z,0.52
2023-03-22T14:09:45.439Z,0.75
2023-03-22T14:12:20.732Z,0.52
2023-03-22T14:14:56.222Z,0.57
2023-03-22T14:17:35.446Z,0.63
2023-03-22T14:20:08.448Z,0.52
